This is the latest recevied weather packets stored in our database for station/object DG6YGE-6. If no packets are shown the sender has not sent any weather packets the latest 10 day(s).
| Time | Temp. | Humidity | Pressure | Rain* | Wind** | Luminosity | Snow |
|---|---|---|---|---|---|---|---|
| 1787933349 | 22.78° C | 64% | 1006.4 hPa | 0 mm | - | 316 W/m² | - |
| 1787932750 | 22.78° C | 65% | 1006.4 hPa | 0 mm | - | 275 W/m² | - |
| 1787932149 | 22.78° C | 65% | 1006.3 hPa | 0 mm | - | 421 W/m² | - |
| 1787931550 | 22.22° C | 69% | 1006.4 hPa | 0 mm | - | 279 W/m² | - |
| 1787930949 | 22.78° C | 68% | 1006.3 hPa | 0 mm | - | 370 W/m² | - |
| 1787930349 | 22.78° C | 69% | 1006.3 hPa | 0 mm | - | 411 W/m² | - |
| 1787929749 | 22.78° C | 69% | 1006.5 hPa | 0 mm | - | 457 W/m² | - |
| 1787929150 | 22.22° C | 70% | 1006.4 hPa | 0 mm | - | 495 W/m² | - |
| 1787928549 | 21.67° C | 75% | 1006.5 hPa | 0 mm | - | 617 W/m² | - |
| 1787927949 | 21.11° C | 82% | 1006.5 hPa | 0 mm | - | 290 W/m² | - |
| 1787927349 | 21.11° C | 87% | 1006.8 hPa | 0 mm | - | 175 W/m² | - |
| 1787926749 | 21.11° C | 88% | 1006.4 hPa | 0 mm | - | 215 W/m² | - |
| 1787926149 | 21.11° C | 91% | 1006.4 hPa | 0 mm | - | 266 W/m² | - |
| 1787925550 | 21.11° C | 92% | 1006.8 hPa | 0 mm | - | 522 W/m² | - |
| 1787924950 | 20.56° C | 91% | 1006.9 hPa | 0 mm | - | 218 W/m² | - |
| 1787924350 | 20.56° C | 91% | 1006.8 hPa | 0 mm | - | 262 W/m² | - |
| 1787923749 | 20° C | 90% | 1006.9 hPa | 0 mm | - | 156 W/m² | - |
| 1787923149 | 20° C | 92% | 1006.8 hPa | 0 mm | - | 181 W/m² | - |
| 1787922550 | 20° C | 93% | 1006.9 hPa | 0 mm | - | 210 W/m² | - |
| 1787921950 | 20° C | 94% | 1006.8 hPa | 0 mm | - | 234 W/m² | - |
| 1787921349 | 20° C | 94% | 1006.8 hPa | 0 mm | - | 184 W/m² | - |
| 1787920750 | 20° C | 95% | 1006.7 hPa | 0 mm | - | 172 W/m² | - |
| 1787920149 | 20° C | 95% | 1006.5 hPa | 0 mm | - | 179 W/m² | - |
| 1787919549 | 20° C | 95% | 1006.7 hPa | 0 mm | - | 196 W/m² | - |
| 1787918949 | 20° C | 95% | 1006.6 hPa | 0.25 mm | - | 255 W/m² | - |
* Rain latest hour (hover to see other rain measurements)
** Current wind speed in m/s (hover to see current wind gust speed)